createdAt,value
2022-11-16T20:46:53.819Z,5.40
2022-11-16T20:49:21.693Z,7.09
2022-11-16T20:51:51.166Z,9.13
2022-11-16T20:54:18.893Z,10.27
2022-11-16T20:56:49.625Z,10.72
2022-11-16T20:59:17.609Z,10.94
2022-11-16T21:01:48.225Z,11.48
2022-11-16T21:04:16.341Z,11.72
2022-11-16T21:06:44.156Z,11.59
2022-11-16T21:09:12.409Z,11.50
2022-11-16T21:11:58.891Z,11.61
2022-11-16T21:14:26.779Z,11.51
2022-11-16T21:16:54.602Z,11.47
2022-11-16T21:19:22.363Z,11.71
2022-11-16T21:21:50.195Z,11.85
2022-11-16T21:24:18.022Z,11.87
2022-11-16T21:26:45.740Z,11.78
2022-11-16T21:29:13.527Z,12.23
2022-11-16T21:31:41.323Z,12.47
2022-11-16T21:34:09.098Z,12.46
2022-11-16T21:36:36.930Z,12.66
2022-11-16T21:39:04.733Z,12.45
2022-11-16T21:41:32.466Z,12.04
2022-11-16T21:44:00.195Z,12.18
2022-11-16T21:46:27.972Z,12.23
2022-11-16T21:48:56.831Z,12.19
2022-11-16T21:51:27.244Z,10.69
2022-11-16T21:53:55.645Z,9.41
2022-11-16T21:56:25.660Z,10.00
2022-11-16T21:58:54.432Z,10.66
2022-11-16T22:01:23.953Z,10.81
2022-11-16T22:04:11.097Z,10.80
2022-11-16T22:06:57.782Z,11.01
2022-11-16T22:09:25.572Z,11.75
2022-11-16T22:11:53.746Z,11.71
2022-11-16T22:14:21.479Z,11.66
2022-11-16T22:16:49.220Z,11.78
2022-11-16T22:19:17.057Z,11.46
2022-11-16T22:21:44.871Z,9.92
2022-11-16T22:24:12.659Z,9.23
2022-11-16T22:26:41.183Z,9.88
2022-11-16T22:29:08.905Z,10.31
2022-11-16T22:31:36.746Z,10.49
2022-11-16T22:34:04.589Z,10.54
2022-11-16T22:36:32.355Z,10.56
2022-11-16T22:39:01.006Z,10.59
2022-11-16T22:41:28.869Z,10.46
2022-11-16T22:43:56.643Z,10.49
2022-11-16T22:46:24.500Z,10.68
2022-11-16T22:48:52.368Z,10.55
2022-11-16T22:51:21.473Z,10.22
2022-11-16T22:54:07.459Z,10.07
2022-11-16T22:56:35.334Z,9.76
2022-11-16T22:59:03.445Z,9.67
2022-11-16T23:01:32.336Z,9.64
2022-11-16T23:04:00.303Z,9.66
2022-11-16T23:06:28.535Z,9.73
2022-11-16T23:08:56.296Z,9.88
2022-11-16T23:11:44.701Z,9.70
2022-11-16T23:14:36.121Z,9.73
2022-11-16T23:17:04.705Z,9.66
2022-11-16T23:19:53.149Z,9.50
2022-11-16T23:22:40.826Z,9.35
2022-11-16T23:25:30.203Z,9.24
2022-11-16T23:28:01.076Z,9.23
2022-11-16T23:30:28.919Z,9.14
2022-11-16T23:32:57.034Z,9.26
2022-11-16T23:35:24.850Z,9.31
2022-11-16T23:38:04.490Z,9.36
2022-11-16T23:40:40.090Z,9.17
2022-11-16T23:43:28.996Z,9.36
2022-11-16T23:45:56.760Z,9.38
2022-11-16T23:48:24.683Z,9.35
2022-11-16T23:50:52.563Z,9.60
2022-11-16T23:53:20.416Z,10.36
2022-11-16T23:55:48.384Z,10.31
2022-11-16T23:58:16.824Z,8.68
